sensor_id;sensor_type;location;lat;lon;timestamp;temperature;humidity
15535;DHT22;7869;49.264;8.596;2023-01-10T00:00:44;5.80;99.90
15535;DHT22;7869;49.264;8.596;2023-01-10T00:03:09;5.80;99.90
15535;DHT22;7869;49.264;8.596;2023-01-10T00:05:36;5.80;99.90
15535;DHT22;7869;49.264;8.596;2023-01-10T00:08:02;5.80;99.90
15535;DHT22;7869;49.264;8.596;2023-01-10T00:10:27;5.80;99.90
15535;DHT22;7869;49.264;8.596;2023-01-10T00:12:53;5.80;99.90
15535;DHT22;7869;49.264;8.596;2023-01-10T00:15:38;5.80;99.90
15535;DHT22;7869;49.264;8.596;2023-01-10T00:18:03;5.70;99.90
15535;DHT22;7869;49.264;8.596;2023-01-10T00:20:29;5.80;99.90
15535;DHT22;7869;49.264;8.596;2023-01-10T00:22:54;5.70;99.90
15535;DHT22;7869;49.264;8.596;2023-01-10T00:25:20;5.70;99.90
15535;DHT22;7869;49.264;8.596;2023-01-10T00:27:46;5.70;99.90
15535;DHT22;7869;49.264;8.596;2023-01-10T00:30:22;5.70;99.90
15535;DHT22;7869;49.264;8.596;2023-01-10T00:32:47;5.70;99.90
15535;DHT22;7869;49.264;8.596;2023-01-10T00:35:13;5.60;99.90
15535;DHT22;7869;49.264;8.596;2023-01-10T00:37:38;5.60;99.90
15535;DHT22;7869;49.264;8.596;2023-01-10T00:40:05;5.60;99.90
15535;DHT22;7869;49.264;8.596;2023-01-10T00:42:34;5.60;99.90
15535;DHT22;7869;49.264;8.596;2023-01-10T00:45:18;5.60;99.90
15535;DHT22;7869;49.264;8.596;2023-01-10T00:47:44;5.60;99.90
15535;DHT22;7869;49.264;8.596;2023-01-10T00:50:10;5.60;99.90
15535;DHT22;7869;49.264;8.596;2023-01-10T00:52:38;5.70;99.90
15535;DHT22;7869;49.264;8.596;2023-01-10T00:55:04;5.70;99.90
15535;DHT22;7869;49.264;8.596;2023-01-10T00:57:30;5.70;99.90
15535;DHT22;7869;49.264;8.596;2023-01-10T00:59:55;5.70;99.90
15535;DHT22;7869;49.264;8.596;2023-01-10T01:02:20;5.70;99.90
15535;DHT22;7869;49.264;8.596;2023-01-10T01:04:46;5.70;99.90
15535;DHT22;7869;49.264;8.596;2023-01-10T01:07:12;5.70;99.90
15535;DHT22;7869;49.264;8.596;2023-01-10T01:09:37;5.70;99.90
15535;DHT22;7869;49.264;8.596;2023-01-10T01:12:23;5.70;99.90
15535;DHT22;7869;49.264;8.596;2023-01-10T01:14:48;5.70;99.90
15535;DHT22;7869;49.264;8.596;2023-01-10T01:17:14;5.70;99.90
15535;DHT22;7869;49.264;8.596;2023-01-10T01:19:40;5.80;99.90
15535;DHT22;7869;49.264;8.596;2023-01-10T01:22:05;5.70;99.90
15535;DHT22;7869;49.264;8.596;2023-01-10T01:24:30;5.80;99.90
15535;DHT22;7869;49.264;8.596;2023-01-10T01:26:56;5.80;99.90
15535;DHT22;7869;49.264;8.596;2023-01-10T01:29:21;5.80;99.90
15535;DHT22;7869;49.264;8.596;2023-01-10T01:31:49;5.90;99.90
15535;DHT22;7869;49.264;8.596;2023-01-10T01:34:14;5.90;99.90
15535;DHT22;7869;49.264;8.596;2023-01-10T01:36:40;5.90;99.90
15535;DHT22;7869;49.264;8.596;2023-01-10T01:39:05;6.00;99.90
15535;DHT22;7869;49.264;8.596;2023-01-10T01:41:31;6.00;99.90
15535;DHT22;7869;49.264;8.596;2023-01-10T01:44:16;6.00;99.90
15535;DHT22;7869;49.264;8.596;2023-01-10T01:46:43;6.00;99.90
15535;DHT22;7869;49.264;8.596;2023-01-10T01:49:12;6.10;99.90
15535;DHT22;7869;49.264;8.596;2023-01-10T01:51:39;6.10;99.90
15535;DHT22;7869;49.264;8.596;2023-01-10T01:54:06;6.20;99.90
15535;DHT22;7869;49.264;8.596;2023-01-10T01:56:40;6.20;99.90
15535;DHT22;7869;49.264;8.596;2023-01-10T01:59:19;6.20;99.90
15535;DHT22;7869;49.264;8.596;2023-01-10T02:01:46;6.20;99.90
15535;DHT22;7869;49.264;8.596;2023-01-10T02:04:17;6.20;99.90
15535;DHT22;7869;49.264;8.596;2023-01-10T02:06:44;6.20;99.90
15535;DHT22;7869;49.264;8.596;2023-01-10T02:09:16;6.20;99.90
15535;DHT22;7869;49.264;8.596;2023-01-10T02:11:42;6.20;99.90
15535;DHT22;7869;49.264;8.596;2023-01-10T02:14:08;6.10;99.90
15535;DHT22;7869;49.264;8.596;2023-01-10T02:16:35;6.10;99.90
15535;DHT22;7869;49.264;8.596;2023-01-10T02:19:00;6.20;99.90
15535;DHT22;7869;49.264;8.596;2023-01-10T02:26:44;6.20;99.90
15535;DHT22;7869;49.264;8.596;2023-01-10T02:34:45;6.20;99.90
15535;DHT22;7869;49.264;8.596;2023-01-10T02:37:07;6.20;99.90
15535;DHT22;7869;49.264;8.596;2023-01-10T02:42:14;6.20;99.90
15535;DHT22;7869;49.264;8.596;2023-01-10T02:44:53;6.20;99.90
15535;DHT22;7869;49.264;8.596;2023-01-10T02:47:22;6.20;99.90
15535;DHT22;7869;49.264;8.596;2023-01-10T02:49:49;6.30;99.90
15535;DHT22;7869;49.264;8.596;2023-01-10T02:52:25;6.20;99.90
15535;DHT22;7869;49.264;8.596;2023-01-10T02:54:52;6.20;99.90
15535;DHT22;7869;49.264;8.596;2023-01-10T03:07:57;6.30;99.90
15535;DHT22;7869;49.264;8.596;2023-01-10T03:10:35;6.30;99.90
15535;DHT22;7869;49.264;8.596;2023-01-10T03:13:09;6.30;99.90
15535;DHT22;7869;49.264;8.596;2023-01-10T03:15:37;6.20;99.90
15535;DHT22;7869;49.264;8.596;2023-01-10T03:18:05;6.20;99.90
15535;DHT22;7869;49.264;8.596;2023-01-10T03:20:34;6.10;99.90
15535;DHT22;7869;49.264;8.596;2023-01-10T03:23:01;6.10;99.90
15535;DHT22;7869;49.264;8.596;2023-01-10T03:25:30;6.00;99.90
15535;DHT22;7869;49.264;8.596;2023-01-10T03:28:06;6.00;99.90
15535;DHT22;7869;49.264;8.596;2023-01-10T03:31:15;6.00;99.90
15535;DHT22;7869;49.264;8.596;2023-01-10T03:33:22;5.90;99.90
15535;DHT22;7869;49.264;8.596;2023-01-10T03:35:50;5.90;99.90
15535;DHT22;7869;49.264;8.596;2023-01-10T03:38:35;5.90;99.90
15535;DHT22;7869;49.264;8.596;2023-01-10T03:41:11;5.80;99.90
15535;DHT22;7869;49.264;8.596;2023-01-10T03:43:43;5.80;99.90
15535;DHT22;7869;49.264;8.596;2023-01-10T03:49:00;5.70;99.90
15535;DHT22;7869;49.264;8.596;2023-01-10T03:51:27;5.60;99.90
15535;DHT22;7869;49.264;8.596;2023-01-10T03:53:53;5.50;99.90
15535;DHT22;7869;49.264;8.596;2023-01-10T03:56:19;5.50;99.90
15535;DHT22;7869;49.264;8.596;2023-01-10T03:58:44;5.40;99.90
15535;DHT22;7869;49.264;8.596;2023-01-10T04:01:10;5.40;99.90
15535;DHT22;7869;49.264;8.596;2023-01-10T04:03:35;5.40;99.90
15535;DHT22;7869;49.264;8.596;2023-01-10T04:06:02;5.40;99.90
15535;DHT22;7869;49.264;8.596;2023-01-10T04:08:27;5.30;99.90
15535;DHT22;7869;49.264;8.596;2023-01-10T04:10:52;5.30;99.90
15535;DHT22;7869;49.264;8.596;2023-01-10T04:13:18;5.30;99.90
15535;DHT22;7869;49.264;8.596;2023-01-10T04:15:43;5.30;99.90
15535;DHT22;7869;49.264;8.596;2023-01-10T04:18:09;5.30;99.90
15535;DHT22;7869;49.264;8.596;2023-01-10T04:20:34;5.30;99.90
15535;DHT22;7869;49.264;8.596;2023-01-10T04:23:00;5.30;99.90
15535;DHT22;7869;49.264;8.596;2023-01-10T04:25:25;5.30;99.90
15535;DHT22;7869;49.264;8.596;2023-01-10T04:27:51;5.30;99.90
15535;DHT22;7869;49.264;8.596;2023-01-10T04:30:17;5.40;99.90
15535;DHT22;7869;49.264;8.596;2023-01-10T04:32:42;5.40;99.90
15535;DHT22;7869;49.264;8.596;2023-01-10T04:35:08;5.50;99.90
15535;DHT22;7869;49.264;8.596;2023-01-10T04:37:33;5.50;99.90
15535;DHT22;7869;49.264;8.596;2023-01-10T04:39:59;5.50;99.90
15535;DHT22;7869;49.264;8.596;2023-01-10T04:42:24;5.50;99.90
15535;DHT22;7869;49.264;8.596;2023-01-10T04:44:50;5.60;99.90
15535;DHT22;7869;49.264;8.596;2023-01-10T04:47:15;5.60;99.90
15535;DHT22;7869;49.264;8.596;2023-01-10T04:49:40;5.60;99.90
15535;DHT22;7869;49.264;8.596;2023-01-10T04:52:06;5.60;99.90
15535;DHT22;7869;49.264;8.596;2023-01-10T04:54:31;5.60;99.90
15535;DHT22;7869;49.264;8.596;2023-01-10T04:56:57;5.60;99.90
15535;DHT22;7869;49.264;8.596;2023-01-10T04:59:22;5.60;99.90
15535;DHT22;7869;49.264;8.596;2023-01-10T05:01:48;5.60;99.90
15535;DHT22;7869;49.264;8.596;2023-01-10T05:04:13;5.60;99.90
15535;DHT22;7869;49.264;8.596;2023-01-10T05:06:39;5.60;99.90
15535;DHT22;7869;49.264;8.596;2023-01-10T05:09:05;5.60;99.90
15535;DHT22;7869;49.264;8.596;2023-01-10T05:11:31;5.60;99.90
15535;DHT22;7869;49.264;8.596;2023-01-10T05:13:56;5.60;99.90
15535;DHT22;7869;49.264;8.596;2023-01-10T05:16:21;5.70;99.90
15535;DHT22;7869;49.264;8.596;2023-01-10T05:18:48;5.60;99.90
15535;DHT22;7869;49.264;8.596;2023-01-10T05:21:14;5.60;99.90
15535;DHT22;7869;49.264;8.596;2023-01-10T05:23:40;5.60;99.90
15535;DHT22;7869;49.264;8.596;2023-01-10T05:26:06;5.70;99.90
15535;DHT22;7869;49.264;8.596;2023-01-10T05:28:32;5.60;99.90
15535;DHT22;7869;49.264;8.596;2023-01-10T05:30:58;5.70;99.90
15535;DHT22;7869;49.264;8.596;2023-01-10T05:33:23;5.70;99.90
15535;DHT22;7869;49.264;8.596;2023-01-10T05:35:49;5.60;99.90
15535;DHT22;7869;49.264;8.596;2023-01-10T05:38:14;5.60;99.90
15535;DHT22;7869;49.264;8.596;2023-01-10T05:40:40;5.60;99.90
15535;DHT22;7869;49.264;8.596;2023-01-10T05:43:05;5.60;99.90
15535;DHT22;7869;49.264;8.596;2023-01-10T05:45:31;5.60;99.90
15535;DHT22;7869;49.264;8.596;2023-01-10T05:47:56;5.60;99.90
15535;DHT22;7869;49.264;8.596;2023-01-10T05:50:22;5.60;99.90
15535;DHT22;7869;49.264;8.596;2023-01-10T05:52:47;5.60;99.90
15535;DHT22;7869;49.264;8.596;2023-01-10T05:55:12;5.60;99.90
15535;DHT22;7869;49.264;8.596;2023-01-10T05:57:38;5.60;99.90
15535;DHT22;7869;49.264;8.596;2023-01-10T06:00:04;5.60;99.90
15535;DHT22;7869;49.264;8.596;2023-01-10T06:02:31;5.60;99.90
15535;DHT22;7869;49.264;8.596;2023-01-10T06:04:56;5.60;99.90
15535;DHT22;7869;49.264;8.596;2023-01-10T06:07:22;5.60;99.90
15535;DHT22;7869;49.264;8.596;2023-01-10T06:09:47;5.60;99.90
15535;DHT22;7869;49.264;8.596;2023-01-10T06:12:15;5.60;99.90
15535;DHT22;7869;49.264;8.596;2023-01-10T06:14:42;5.60;99.90
15535;DHT22;7869;49.264;8.596;2023-01-10T06:17:08;5.60;99.90
15535;DHT22;7869;49.264;8.596;2023-01-10T06:19:34;5.60;99.90
15535;DHT22;7869;49.264;8.596;2023-01-10T06:21:59;5.60;99.90
15535;DHT22;7869;49.264;8.596;2023-01-10T06:24:25;5.60;99.90
15535;DHT22;7869;49.264;8.596;2023-01-10T06:26:50;5.60;99.90
15535;DHT22;7869;49.264;8.596;2023-01-10T06:29:16;5.60;99.90
15535;DHT22;7869;49.264;8.596;2023-01-10T06:31:41;5.60;99.90
15535;DHT22;7869;49.264;8.596;2023-01-10T06:34:07;5.60;99.90
15535;DHT22;7869;49.264;8.596;2023-01-10T06:36:32;5.60;99.90
15535;DHT22;7869;49.264;8.596;2023-01-10T06:38:58;5.60;99.90
15535;DHT22;7869;49.264;8.596;2023-01-10T06:41:23;5.60;99.90
15535;DHT22;7869;49.264;8.596;2023-01-10T06:43:49;5.60;99.90
15535;DHT22;7869;49.264;8.596;2023-01-10T06:46:15;5.60;99.90
15535;DHT22;7869;49.264;8.596;2023-01-10T06:48:42;5.60;99.90
15535;DHT22;7869;49.264;8.596;2023-01-10T06:51:09;5.60;99.90
15535;DHT22;7869;49.264;8.596;2023-01-10T06:53:34;5.60;99.90
15535;DHT22;7869;49.264;8.596;2023-01-10T06:56:00;5.60;99.90
15535;DHT22;7869;49.264;8.596;2023-01-10T06:58:25;5.60;99.90
15535;DHT22;7869;49.264;8.596;2023-01-10T07:00:51;5.60;99.90
15535;DHT22;7869;49.264;8.596;2023-01-10T07:03:16;5.60;99.90
15535;DHT22;7869;49.264;8.596;2023-01-10T07:05:41;5.60;99.90
15535;DHT22;7869;49.264;8.596;2023-01-10T07:08:07;5.60;99.90
15535;DHT22;7869;49.264;8.596;2023-01-10T07:10:32;5.60;99.90
15535;DHT22;7869;49.264;8.596;2023-01-10T07:12:58;5.60;99.90
15535;DHT22;7869;49.264;8.596;2023-01-10T07:15:24;5.60;99.90
15535;DHT22;7869;49.264;8.596;2023-01-10T07:17:49;5.50;99.90
15535;DHT22;7869;49.264;8.596;2023-01-10T07:20:15;5.50;99.90
15535;DHT22;7869;49.264;8.596;2023-01-10T07:22:41;5.40;99.90
15535;DHT22;7869;49.264;8.596;2023-01-10T07:25:06;5.50;99.90
15535;DHT22;7869;49.264;8.596;2023-01-10T07:27:32;5.40;99.90
15535;DHT22;7869;49.264;8.596;2023-01-10T07:29:57;5.40;99.90
15535;DHT22;7869;49.264;8.596;2023-01-10T07:32:23;5.40;99.90
15535;DHT22;7869;49.264;8.596;2023-01-10T07:34:49;5.40;99.90
15535;DHT22;7869;49.264;8.596;2023-01-10T07:37:14;5.40;99.90
15535;DHT22;7869;49.264;8.596;2023-01-10T07:39:40;5.50;99.90
15535;DHT22;7869;49.264;8.596;2023-01-10T07:42:09;5.40;99.90
15535;DHT22;7869;49.264;8.596;2023-01-10T07:44:34;5.50;99.90
15535;DHT22;7869;49.264;8.596;2023-01-10T07:47:00;5.50;99.90
15535;DHT22;7869;49.264;8.596;2023-01-10T07:49:25;5.50;99.90
15535;DHT22;7869;49.264;8.596;2023-01-10T07:51:51;5.50;99.90
15535;DHT22;7869;49.264;8.596;2023-01-10T07:54:16;5.50;99.90
15535;DHT22;7869;49.264;8.596;2023-01-10T07:56:42;5.60;99.90
15535;DHT22;7869;49.264;8.596;2023-01-10T07:59:07;5.60;99.90
15535;DHT22;7869;49.264;8.596;2023-01-10T08:01:33;5.60;99.90
15535;DHT22;7869;49.264;8.596;2023-01-10T08:03:58;5.60;99.90
15535;DHT22;7869;49.264;8.596;2023-01-10T08:06:24;5.60;99.90
15535;DHT22;7869;49.264;8.596;2023-01-10T08:08:50;5.70;99.90
15535;DHT22;7869;49.264;8.596;2023-01-10T08:11:15;5.70;99.90
15535;DHT22;7869;49.264;8.596;2023-01-10T08:13:40;5.90;99.90
15535;DHT22;7869;49.264;8.596;2023-01-10T08:16:06;6.00;99.90
15535;DHT22;7869;49.264;8.596;2023-01-10T08:18:32;6.10;99.90
15535;DHT22;7869;49.264;8.596;2023-01-10T08:20:58;6.00;99.90
15535;DHT22;7869;49.264;8.596;2023-01-10T08:23:23;6.00;99.90
15535;DHT22;7869;49.264;8.596;2023-01-10T08:25:49;6.00;99.90
15535;DHT22;7869;49.264;8.596;2023-01-10T08:28:15;6.00;99.90
15535;DHT22;7869;49.264;8.596;2023-01-10T08:30:41;6.00;99.90
15535;DHT22;7869;49.264;8.596;2023-01-10T08:33:07;6.10;99.90
15535;DHT22;7869;49.264;8.596;2023-01-10T08:35:39;6.00;99.90
15535;DHT22;7869;49.264;8.596;2023-01-10T08:38:06;6.00;99.90
15535;DHT22;7869;49.264;8.596;2023-01-10T08:40:32;6.00;99.90
15535;DHT22;7869;49.264;8.596;2023-01-10T08:42:58;6.00;99.90
15535;DHT22;7869;49.264;8.596;2023-01-10T08:45:23;6.10;99.90
15535;DHT22;7869;49.264;8.596;2023-01-10T08:47:49;6.10;99.90
15535;DHT22;7869;49.264;8.596;2023-01-10T08:50:14;6.10;99.90
15535;DHT22;7869;49.264;8.596;2023-01-10T08:52:40;6.10;99.90
15535;DHT22;7869;49.264;8.596;2023-01-10T08:55:05;6.10;99.90
15535;DHT22;7869;49.264;8.596;2023-01-10T08:57:31;6.10;99.90
15535;DHT22;7869;49.264;8.596;2023-01-10T08:59:56;6.10;99.90
15535;DHT22;7869;49.264;8.596;2023-01-10T09:02:22;6.10;99.90
15535;DHT22;7869;49.264;8.596;2023-01-10T09:04:47;6.10;99.90
15535;DHT22;7869;49.264;8.596;2023-01-10T09:07:13;6.10;99.90
15535;DHT22;7869;49.264;8.596;2023-01-10T09:09:38;6.10;99.90
15535;DHT22;7869;49.264;8.596;2023-01-10T09:12:04;6.10;99.90
15535;DHT22;7869;49.264;8.596;2023-01-10T09:14:49;6.10;99.90
15535;DHT22;7869;49.264;8.596;2023-01-10T09:17:15;6.20;99.90
15535;DHT22;7869;49.264;8.596;2023-01-10T09:19:40;6.20;99.90
15535;DHT22;7869;49.264;8.596;2023-01-10T09:22:06;6.20;99.90
15535;DHT22;7869;49.264;8.596;2023-01-10T09:24:31;6.30;99.90
15535;DHT22;7869;49.264;8.596;2023-01-10T09:26:57;6.30;99.90
15535;DHT22;7869;49.264;8.596;2023-01-10T09:29:22;6.30;99.90
15535;DHT22;7869;49.264;8.596;2023-01-10T09:31:47;6.30;99.90
15535;DHT22;7869;49.264;8.596;2023-01-10T09:34:13;6.40;99.90
15535;DHT22;7869;49.264;8.596;2023-01-10T09:36:38;6.40;99.90
15535;DHT22;7869;49.264;8.596;2023-01-10T09:39:04;6.40;99.90
15535;DHT22;7869;49.264;8.596;2023-01-10T09:41:41;6.40;99.90
15535;DHT22;7869;49.264;8.596;2023-01-10T09:49:35;6.50;99.90
15535;DHT22;7869;49.264;8.596;2023-01-10T09:52:01;6.60;99.90
15535;DHT22;7869;49.264;8.596;2023-01-10T09:54:37;6.70;99.90
15535;DHT22;7869;49.264;8.596;2023-01-10T09:57:03;6.70;99.90
15535;DHT22;7869;49.264;8.596;2023-01-10T09:59:36;6.70;99.90
15535;DHT22;7869;49.264;8.596;2023-01-10T10:02:04;6.80;99.90
15535;DHT22;7869;49.264;8.596;2023-01-10T10:04:34;6.70;99.90
15535;DHT22;7869;49.264;8.596;2023-01-10T10:07:00;6.70;99.90
15535;DHT22;7869;49.264;8.596;2023-01-10T10:09:32;6.70;99.90
15535;DHT22;7869;49.264;8.596;2023-01-10T10:17:44;6.70;99.90
15535;DHT22;7869;49.264;8.596;2023-01-10T10:22:51;6.80;99.90
15535;DHT22;7869;49.264;8.596;2023-01-10T10:32:56;6.90;99.90
15535;DHT22;7869;49.264;8.596;2023-01-10T10:35:37;6.90;99.90
15535;DHT22;7869;49.264;8.596;2023-01-10T10:38:17;7.00;99.90
15535;DHT22;7869;49.264;8.596;2023-01-10T10:40:44;6.90;99.90
15535;DHT22;7869;49.264;8.596;2023-01-10T10:43:15;6.90;99.90
15535;DHT22;7869;49.264;8.596;2023-01-10T10:45:45;7.00;99.90
15535;DHT22;7869;49.264;8.596;2023-01-10T10:48:20;7.10;99.90
15535;DHT22;7869;49.264;8.596;2023-01-10T10:50:54;7.00;99.90
15535;DHT22;7869;49.264;8.596;2023-01-10T10:53:20;7.00;99.90
15535;DHT22;7869;49.264;8.596;2023-01-10T10:55:46;6.90;99.90
15535;DHT22;7869;49.264;8.596;2023-01-10T10:58:11;7.00;99.90
15535;DHT22;7869;49.264;8.596;2023-01-10T11:00:38;7.00;99.90
15535;DHT22;7869;49.264;8.596;2023-01-10T11:03:09;7.00;99.90
15535;DHT22;7869;49.264;8.596;2023-01-10T11:05:39;7.10;99.90
15535;DHT22;7869;49.264;8.596;2023-01-10T11:08:05;7.10;99.90
15535;DHT22;7869;49.264;8.596;2023-01-10T11:10:33;7.10;99.90
15535;DHT22;7869;49.264;8.596;2023-01-10T11:13:04;7.10;99.90
15535;DHT22;7869;49.264;8.596;2023-01-10T11:15:37;7.00;99.90
15535;DHT22;7869;49.264;8.596;2023-01-10T11:18:04;7.00;99.90
15535;DHT22;7869;49.264;8.596;2023-01-10T11:20:29;7.00;99.90
15535;DHT22;7869;49.264;8.596;2023-01-10T11:22:55;7.00;99.90
15535;DHT22;7869;49.264;8.596;2023-01-10T11:25:22;7.00;99.90
15535;DHT22;7869;49.264;8.596;2023-01-10T11:32:51;7.10;99.90
15535;DHT22;7869;49.264;8.596;2023-01-10T11:35:21;7.20;99.90
15535;DHT22;7869;49.264;8.596;2023-01-10T11:38:03;7.30;99.90
15535;DHT22;7869;49.264;8.596;2023-01-10T11:40:29;7.30;99.90
15535;DHT22;7869;49.264;8.596;2023-01-10T11:42:55;7.30;99.90
15535;DHT22;7869;49.264;8.596;2023-01-10T11:45:22;7.40;99.90
15535;DHT22;7869;49.264;8.596;2023-01-10T11:48:05;7.50;99.90
15535;DHT22;7869;49.264;8.596;2023-01-10T11:50:32;7.60;99.90
15535;DHT22;7869;49.264;8.596;2023-01-10T11:52:59;7.60;99.90
15535;DHT22;7869;49.264;8.596;2023-01-10T11:55:25;7.70;99.90
15535;DHT22;7869;49.264;8.596;2023-01-10T12:00:29;7.80;99.90
15535;DHT22;7869;49.264;8.596;2023-01-10T12:02:55;7.70;99.90
15535;DHT22;7869;49.264;8.596;2023-01-10T12:05:21;7.70;99.90
15535;DHT22;7869;49.264;8.596;2023-01-10T12:08:00;7.80;99.90
15535;DHT22;7869;49.264;8.596;2023-01-10T12:10:30;7.90;99.90
15535;DHT22;7869;49.264;8.596;2023-01-10T12:12:57;7.80;99.90
15535;DHT22;7869;49.264;8.596;2023-01-10T12:15:24;7.80;99.90
15535;DHT22;7869;49.264;8.596;2023-01-10T12:17:50;7.80;99.90
15535;DHT22;7869;49.264;8.596;2023-01-10T12:20:16;7.80;99.90
15535;DHT22;7869;49.264;8.596;2023-01-10T12:22:44;7.70;99.90
15535;DHT22;7869;49.264;8.596;2023-01-10T12:25:17;7.60;99.90
15535;DHT22;7869;49.264;8.596;2023-01-10T12:27:44;7.60;99.90
15535;DHT22;7869;49.264;8.596;2023-01-10T12:32:59;7.60;99.90
15535;DHT22;7869;49.264;8.596;2023-01-10T12:38:01;7.70;99.90
15535;DHT22;7869;49.264;8.596;2023-01-10T12:40:41;7.80;99.90
15535;DHT22;7869;49.264;8.596;2023-01-10T12:43:13;7.90;99.90
15535;DHT22;7869;49.264;8.596;2023-01-10T12:46:05;8.00;99.90
15535;DHT22;7869;49.264;8.596;2023-01-10T12:48:48;8.00;99.90
15535;DHT22;7869;49.264;8.596;2023-01-10T12:51:14;8.00;99.90
15535;DHT22;7869;49.264;8.596;2023-01-10T12:53:44;8.00;99.90
15535;DHT22;7869;49.264;8.596;2023-01-10T12:56:13;8.20;99.90
15535;DHT22;7869;49.264;8.596;2023-01-10T12:58:40;8.30;99.90
15535;DHT22;7869;49.264;8.596;2023-01-10T13:01:09;8.40;99.90
15535;DHT22;7869;49.264;8.596;2023-01-10T13:03:35;8.50;99.90
15535;DHT22;7869;49.264;8.596;2023-01-10T13:06:01;8.50;99.90
15535;DHT22;7869;49.264;8.596;2023-01-10T13:08:29;8.50;99.90
15535;DHT22;7869;49.264;8.596;2023-01-10T13:10:56;8.60;99.90
15535;DHT22;7869;49.264;8.596;2023-01-10T13:15:52;8.50;99.90
15535;DHT22;7869;49.264;8.596;2023-01-10T13:21:09;8.50;99.90
15535;DHT22;7869;49.264;8.596;2023-01-10T13:23:47;8.40;99.90
15535;DHT22;7869;49.264;8.596;2023-01-10T13:26:13;8.20;99.90
15535;DHT22;7869;49.264;8.596;2023-01-10T13:28:39;8.20;99.90
15535;DHT22;7869;49.264;8.596;2023-01-10T13:31:06;8.10;99.90
15535;DHT22;7869;49.264;8.596;2023-01-10T13:33:33;8.20;99.90
15535;DHT22;7869;49.264;8.596;2023-01-10T13:36:47;8.20;99.90
15535;DHT22;7869;49.264;8.596;2023-01-10T13:41:18;8.10;99.90
15535;DHT22;7869;49.264;8.596;2023-01-10T13:44:16;8.20;99.90
15535;DHT22;7869;49.264;8.596;2023-01-10T13:46:43;8.10;99.90
15535;DHT22;7869;49.264;8.596;2023-01-10T13:51:34;8.10;99.90
15535;DHT22;7869;49.264;8.596;2023-01-10T13:54:01;8.10;99.90
15535;DHT22;7869;49.264;8.596;2023-01-10T13:58:58;8.10;99.90
15535;DHT22;7869;49.264;8.596;2023-01-10T14:01:43;8.10;99.90
15535;DHT22;7869;49.264;8.596;2023-01-10T14:04:32;8.00;99.90
15535;DHT22;7869;49.264;8.596;2023-01-10T14:07:00;8.00;99.90
15535;DHT22;7869;49.264;8.596;2023-01-10T14:09:36;8.00;99.90
15535;DHT22;7869;49.264;8.596;2023-01-10T14:12:07;7.90;99.90
15535;DHT22;7869;49.264;8.596;2023-01-10T14:14:40;7.90;99.90
15535;DHT22;7869;49.264;8.596;2023-01-10T14:17:13;7.90;99.90
15535;DHT22;7869;49.264;8.596;2023-01-10T14:19:40;8.00;99.90
15535;DHT22;7869;49.264;8.596;2023-01-10T14:22:17;8.00;99.90
15535;DHT22;7869;49.264;8.596;2023-01-10T14:24:45;8.00;99.90
15535;DHT22;7869;49.264;8.596;2023-01-10T14:27:15;8.00;99.90
15535;DHT22;7869;49.264;8.596;2023-01-10T14:29:49;8.00;99.90
15535;DHT22;7869;49.264;8.596;2023-01-10T14:34:50;8.00;99.90
15535;DHT22;7869;49.264;8.596;2023-01-10T14:37:26;8.00;99.90
15535;DHT22;7869;49.264;8.596;2023-01-10T14:39:54;7.90;99.90
15535;DHT22;7869;49.264;8.596;2023-01-10T14:42:20;7.90;99.90
15535;DHT22;7869;49.264;8.596;2023-01-10T14:47:27;7.80;99.90
15535;DHT22;7869;49.264;8.596;2023-01-10T14:49:53;7.80;99.90
15535;DHT22;7869;49.264;8.596;2023-01-10T14:52:45;7.80;99.90
15535;DHT22;7869;49.264;8.596;2023-01-10T14:55:11;7.70;99.90
15535;DHT22;7869;49.264;8.596;2023-01-10T14:57:37;7.70;99.90
15535;DHT22;7869;49.264;8.596;2023-01-10T15:00:05;7.70;99.90
15535;DHT22;7869;49.264;8.596;2023-01-10T15:02:30;7.70;99.90
15535;DHT22;7869;49.264;8.596;2023-01-10T15:05:06;7.70;99.90
15535;DHT22;7869;49.264;8.596;2023-01-10T15:07:34;7.70;99.90
15535;DHT22;7869;49.264;8.596;2023-01-10T15:09:59;7.70;99.90
15535;DHT22;7869;49.264;8.596;2023-01-10T15:12:30;7.60;99.90
15535;DHT22;7869;49.264;8.596;2023-01-10T15:14:59;7.60;99.90
15535;DHT22;7869;49.264;8.596;2023-01-10T15:17:25;7.60;99.90
15535;DHT22;7869;49.264;8.596;2023-01-10T15:19:51;7.60;99.90
15535;DHT22;7869;49.264;8.596;2023-01-10T15:22:24;7.60;99.90
15535;DHT22;7869;49.264;8.596;2023-01-10T15:27:22;7.50;99.90
15535;DHT22;7869;49.264;8.596;2023-01-10T15:29:48;7.40;99.90
15535;DHT22;7869;49.264;8.596;2023-01-10T15:32:20;7.40;99.90
15535;DHT22;7869;49.264;8.596;2023-01-10T15:34:47;7.30;99.90
15535;DHT22;7869;49.264;8.596;2023-01-10T15:37:16;7.20;99.90
15535;DHT22;7869;49.264;8.596;2023-01-10T15:39:44;7.20;99.90
15535;DHT22;7869;49.264;8.596;2023-01-10T15:42:10;7.10;99.90
15535;DHT22;7869;49.264;8.596;2023-01-10T15:47:05;7.00;99.90
15535;DHT22;7869;49.264;8.596;2023-01-10T15:49:31;6.90;99.90
15535;DHT22;7869;49.264;8.596;2023-01-10T15:51:56;6.90;99.90
15535;DHT22;7869;49.264;8.596;2023-01-10T15:56:48;6.80;99.90
15535;DHT22;7869;49.264;8.596;2023-01-10T15:59:20;6.80;99.90
15535;DHT22;7869;49.264;8.596;2023-01-10T16:04:33;6.70;99.90
15535;DHT22;7869;49.264;8.596;2023-01-10T16:07:07;6.70;99.90
15535;DHT22;7869;49.264;8.596;2023-01-10T16:09:33;6.70;99.90
15535;DHT22;7869;49.264;8.596;2023-01-10T16:11:59;6.70;99.90
15535;DHT22;7869;49.264;8.596;2023-01-10T16:14:44;6.70;99.90
15535;DHT22;7869;49.264;8.596;2023-01-10T16:17:09;6.70;99.90
15535;DHT22;7869;49.264;8.596;2023-01-10T16:19:36;6.70;99.90
15535;DHT22;7869;49.264;8.596;2023-01-10T16:22:02;6.70;99.90
15535;DHT22;7869;49.264;8.596;2023-01-10T16:24:29;6.70;99.90
15535;DHT22;7869;49.264;8.596;2023-01-10T16:26:55;6.70;99.90
15535;DHT22;7869;49.264;8.596;2023-01-10T16:29:22;6.70;99.90
15535;DHT22;7869;49.264;8.596;2023-01-10T16:31:48;6.70;99.90
15535;DHT22;7869;49.264;8.596;2023-01-10T16:34:16;6.70;99.90
15535;DHT22;7869;49.264;8.596;2023-01-10T16:36:41;6.70;99.90
15535;DHT22;7869;49.264;8.596;2023-01-10T16:39:11;6.70;99.90
15535;DHT22;7869;49.264;8.596;2023-01-10T16:41:38;6.70;99.90
15535;DHT22;7869;49.264;8.596;2023-01-10T16:44:23;6.70;99.90
15535;DHT22;7869;49.264;8.596;2023-01-10T16:46:48;6.70;99.90
15535;DHT22;7869;49.264;8.596;2023-01-10T16:49:14;6.70;99.90
15535;DHT22;7869;49.264;8.596;2023-01-10T16:51:42;6.70;99.90
15535;DHT22;7869;49.264;8.596;2023-01-10T16:54:18;6.70;99.90
15535;DHT22;7869;49.264;8.596;2023-01-10T16:56:45;6.60;99.90
15535;DHT22;7869;49.264;8.596;2023-01-10T16:59:11;6.60;99.90
15535;DHT22;7869;49.264;8.596;2023-01-10T17:01:37;6.50;99.90
15535;DHT22;7869;49.264;8.596;2023-01-10T17:04:05;6.50;99.90
15535;DHT22;7869;49.264;8.596;2023-01-10T17:06:31;6.50;99.90
15535;DHT22;7869;49.264;8.596;2023-01-10T17:08:56;6.50;99.90
15535;DHT22;7869;49.264;8.596;2023-01-10T17:11:24;6.60;99.90
15535;DHT22;7869;49.264;8.596;2023-01-10T17:13:50;6.60;99.90
15535;DHT22;7869;49.264;8.596;2023-01-10T17:16:16;6.60;99.90
15535;DHT22;7869;49.264;8.596;2023-01-10T17:18:41;6.60;99.90
15535;DHT22;7869;49.264;8.596;2023-01-10T17:21:08;6.60;99.90
15535;DHT22;7869;49.264;8.596;2023-01-10T17:23:35;6.60;99.90
15535;DHT22;7869;49.264;8.596;2023-01-10T17:26:02;6.60;99.90
15535;DHT22;7869;49.264;8.596;2023-01-10T17:28:27;6.60;99.90
15535;DHT22;7869;49.264;8.596;2023-01-10T17:30:53;6.60;99.90
15535;DHT22;7869;49.264;8.596;2023-01-10T17:33:19;6.70;99.90
15535;DHT22;7869;49.264;8.596;2023-01-10T17:35:44;6.70;99.90